Time;durP1;ratioP1;P1;durP2;ratioP2;P2;SDS_P1;SDS_P2;PMS_P1;PMS_P2;Temp;Humidity;BMP_temperature;BMP_pressure;BME280_temperature;BME280_humidity;BME280_pressure;Samples;Min_cycle;Max_cycle;Signal;HPM_P1;HPM_P2
2022/09/01 00:01:26;;;;;;;0.43;0.43;;;12.70;99.90;;;;;;5035036;28;20660;-79
2022/09/01 00:03:54;;;;;;;0.47;0.47;;;12.70;99.90;;;;;;5034990;28;20228;-79
2022/09/01 00:06:22;;;;;;;0.40;0.40;;;12.70;99.90;;;;;;5035199;28;20215;-81
2022/09/01 00:08:53;;;;;;;0.70;0.70;;;12.70;99.90;;;;;;5035249;28;20254;-80
2022/09/01 00:11:21;;;;;;;0.60;0.60;;;12.80;99.90;;;;;;5034850;28;20180;-78
2022/09/01 00:13:47;;;;;;;0.40;0.40;;;12.80;99.90;;;;;;5034772;28;20207;-79
2022/09/01 00:16:15;;;;;;;0.40;0.40;;;12.90;99.90;;;;;;5034720;28;20190;-79
2022/09/01 00:18:42;;;;;;;0.40;0.40;;;12.80;99.90;;;;;;5034846;28;20254;-80
2022/09/01 00:21:09;;;;;;;0.40;0.40;;;12.80;99.90;;;;;;5036874;28;20270;-77
2022/09/01 00:23:36;;;;;;;0.53;0.53;;;12.80;99.90;;;;;;5039732;28;20613;-79
2022/09/01 00:26:02;;;;;;;0.60;0.60;;;12.80;99.90;;;;;;5036284;28;20199;-80
2022/09/01 00:28:28;;;;;;;0.40;0.40;;;12.80;99.90;;;;;;5036748;28;20716;-81
2022/09/01 00:30:53;;;;;;;0.40;0.40;;;12.80;99.90;;;;;;5035514;28;20207;-82
2022/09/01 00:33:19;;;;;;;0.50;0.50;;;12.80;99.90;;;;;;5035714;28;20195;-79
2022/09/01 00:35:44;;;;;;;0.40;0.40;;;12.70;99.90;;;;;;5018151;28;20534;-80
2022/09/01 00:38:10;;;;;;;0.50;0.50;;;12.70;99.90;;;;;;5035542;28;20184;-79
2022/09/01 00:40:37;;;;;;;0.40;0.40;;;12.70;99.90;;;;;;5035233;28;20267;-81
2022/09/01 00:43:41;;;;;;;0.50;0.50;;;12.70;99.90;;;;;;5034701;28;20196;-81
2022/09/01 00:46:10;;;;;;;0.40;0.40;;;12.80;99.90;;;;;;5034315;28;20222;-80
2022/09/01 00:48:36;;;;;;;0.43;0.43;;;12.70;99.90;;;;;;5035243;28;20211;-81
2022/09/01 00:51:03;;;;;;;0.40;0.40;;;12.60;99.90;;;;;;5034647;28;20198;-77
2022/09/01 00:53:28;;;;;;;0.40;0.40;;;12.60;99.90;;;;;;5035339;28;20196;-79
2022/09/01 00:55:54;;;;;;;0.43;0.43;;;12.60;99.90;;;;;;5035083;28;20188;-78
2022/09/01 00:58:21;;;;;;;0.50;0.50;;;12.60;99.90;;;;;;5031077;28;20514;-78
2022/09/01 01:00:48;;;;;;;0.40;0.40;;;12.60;99.90;;;;;;5045183;28;20573;-81
2022/09/01 01:03:14;;;;;;;0.50;0.50;;;12.50;99.90;;;;;;5048545;28;20199;-83
2022/09/01 01:05:53;;;;;;;0.40;0.40;;;12.60;99.90;;;;;;5026256;28;20174;-79
2022/09/01 01:08:32;;;;;;;0.30;0.30;;;12.50;99.90;;;;;;5040343;28;20661;-81
2022/09/01 01:11:00;;;;;;;0.40;0.40;;;12.50;99.90;;;;;;5033254;28;20657;-79
2022/09/01 01:13:28;;;;;;;0.30;0.30;;;12.40;99.90;;;;;;5034274;28;20204;-79
2022/09/01 01:15:54;;;;;;;0.50;0.50;;;12.40;99.90;;;;;;5034496;28;20188;-79
2022/09/01 01:18:19;;;;;;;0.50;0.50;;;12.40;99.90;;;;;;5038263;28;20581;-80
2022/09/01 01:23:53;;;;;;;0.40;0.40;;;12.50;99.90;;;;;;5048261;28;20206;-78
2022/09/01 01:26:19;;;;;;;0.40;0.40;;;12.70;99.90;;;;;;5047815;28;20577;-78
2022/09/01 01:28:45;;;;;;;0.50;0.50;;;12.60;99.90;;;;;;5046660;28;20204;-79
2022/09/01 01:31:17;;;;;;;0.40;0.40;;;12.70;99.90;;;;;;5047045;28;20172;-79
2022/09/01 01:33:49;;;;;;;0.40;0.40;;;12.60;99.90;;;;;;5035289;28;20199;-80
2022/09/01 01:36:29;;;;;;;0.40;0.40;;;12.50;99.90;;;;;;5035724;28;20279;-78
2022/09/01 01:39:01;;;;;;;0.50;0.50;;;12.50;99.90;;;;;;5035034;28;20195;-80
2022/09/01 01:41:28;;;;;;;0.67;0.67;;;12.50;99.90;;;;;;5035171;28;20176;-80
2022/09/01 01:43:57;;;;;;;0.50;0.50;;;12.50;99.90;;;;;;5035286;28;20274;-78
2022/09/01 01:46:24;;;;;;;0.50;0.50;;;12.50;99.90;;;;;;5035611;28;20208;-79
2022/09/01 01:48:51;;;;;;;0.40;0.40;;;12.50;99.90;;;;;;5035802;28;20186;-80
2022/09/01 01:51:20;;;;;;;0.50;0.50;;;12.40;99.90;;;;;;5034071;28;20539;-80
2022/09/01 01:53:46;;;;;;;0.40;0.40;;;12.50;99.90;;;;;;5034881;28;20538;-77
2022/09/01 01:56:12;;;;;;;0.50;0.50;;;12.40;99.90;;;;;;5034843;28;20176;-82
2022/09/01 01:58:39;;;;;;;0.40;0.40;;;12.40;99.90;;;;;;5034892;28;20268;-77
2022/09/01 02:01:06;;;;;;;0.50;0.50;;;12.40;99.90;;;;;;5033633;28;20198;-78
2022/09/01 02:03:37;;;;;;;0.40;0.40;;;12.30;99.90;;;;;;5034376;28;20199;-79
2022/09/01 02:06:06;;;;;;;0.50;0.50;;;12.20;99.90;;;;;;5032513;28;20188;-80
2022/09/01 02:08:34;;;;;;;0.50;0.50;;;12.20;99.90;;;;;;5033281;28;20186;-77
2022/09/01 02:11:02;;;;;;;0.60;0.60;;;12.40;99.90;;;;;;5032740;28;20210;-79
2022/09/01 02:13:31;;;;;;;0.40;0.40;;;12.40;99.90;;;;;;5033143;28;20240;-77
2022/09/01 02:16:00;;;;;;;0.50;0.50;;;12.70;99.90;;;;;;5034516;28;20180;-78
2022/09/01 02:18:34;;;;;;;0.50;0.50;;;12.70;99.90;;;;;;5034523;28;20179;-78
2022/09/01 02:21:00;;;;;;;0.60;0.60;;;12.70;99.90;;;;;;5034528;28;20172;-78
2022/09/01 02:23:26;;;;;;;0.50;0.50;;;12.70;99.90;;;;;;5033165;28;20204;-81
2022/09/01 02:25:56;;;;;;;0.57;0.57;;;12.70;99.90;;;;;;5033519;28;20180;-81
2022/09/01 02:28:23;;;;;;;0.43;0.43;;;12.50;99.90;;;;;;5118175;23;20513;-79
2022/09/01 02:30:50;;;;;;;0.40;0.40;;;12.40;99.90;;;;;;5015400;28;20828;-79
2022/09/01 02:33:18;;;;;;;0.50;0.50;;;12.40;99.90;;;;;;5023055;28;20217;-80
2022/09/01 02:35:49;;;;;;;0.70;0.70;;;12.40;99.90;;;;;;5035538;28;20171;-79
2022/09/01 02:38:16;;;;;;;0.40;0.40;;;12.50;99.90;;;;;;5035909;28;20180;-80
2022/09/01 02:40:44;;;;;;;0.50;0.50;;;12.60;99.90;;;;;;5035728;28;20613;-81
2022/09/01 02:43:10;;;;;;;0.40;0.40;;;12.60;99.90;;;;;;5034486;28;20199;-79
2022/09/01 02:45:37;;;;;;;0.40;0.40;;;12.60;99.90;;;;;;5033330;28;20191;-79
2022/09/01 02:48:09;;;;;;;0.60;0.60;;;12.50;99.90;;;;;;5032569;28;20258;-79
2022/09/01 02:50:36;;;;;;;0.50;0.50;;;12.50;99.90;;;;;;5032531;28;20240;-78
2022/09/01 02:53:05;;;;;;;0.40;0.40;;;12.50;99.90;;;;;;5032036;28;20371;-78
2022/09/01 02:55:31;;;;;;;0.40;0.40;;;12.40;99.90;;;;;;5031710;28;20263;-78
2022/09/01 02:57:57;;;;;;;0.50;0.50;;;12.30;99.90;;;;;;5032110;28;20641;-78
2022/09/01 03:00:32;;;;;;;0.50;0.50;;;12.20;99.90;;;;;;5031337;28;20180;-78
2022/09/01 03:03:00;;;;;;;0.50;0.50;;;12.10;99.90;;;;;;5031999;28;20199;-78
2022/09/01 03:05:29;;;;;;;0.40;0.40;;;12.00;99.90;;;;;;5031564;28;20645;-77
2022/09/01 03:07:58;;;;;;;0.47;0.47;;;11.90;99.90;;;;;;5031494;28;20218;-77
2022/09/01 03:10:31;;;;;;;0.40;0.40;;;11.80;99.90;;;;;;5031191;28;20710;-77
2022/09/01 03:12:59;;;;;;;0.40;0.40;;;11.80;99.90;;;;;;5031927;28;20212;-77
2022/09/01 03:15:25;;;;;;;0.50;0.50;;;11.80;99.90;;;;;;5031505;28;20179;-77
2022/09/01 03:17:51;;;;;;;0.40;0.40;;;11.80;99.90;;;;;;5031164;28;20649;-77
2022/09/01 03:20:18;;;;;;;0.50;0.50;;;11.80;99.90;;;;;;5031014;28;20179;-77
2022/09/01 03:22:46;;;;;;;0.40;0.40;;;11.80;99.90;;;;;;5031691;28;20214;-77
2022/09/01 03:25:12;;;;;;;0.50;0.50;;;11.90;99.90;;;;;;5050048;28;20215;-78
2022/09/01 03:27:38;;;;;;;0.40;0.40;;;11.90;99.90;;;;;;5051240;28;20219;-77
2022/09/01 03:30:04;;;;;;;0.53;0.53;;;11.90;99.90;;;;;;5052093;28;20217;-77
2022/09/01 03:32:29;;;;;;;0.43;0.43;;;11.90;99.90;;;;;;5053001;28;20176;-77
2022/09/01 03:34:56;;;;;;;0.50;0.50;;;11.80;99.90;;;;;;5032417;28;20183;-78
2022/09/01 03:37:22;;;;;;;0.53;0.53;;;11.80;99.90;;;;;;5032139;28;20233;-78
2022/09/01 03:39:47;;;;;;;0.50;0.50;;;11.60;99.90;;;;;;5031599;28;20180;-78
2022/09/01 03:42:21;;;;;;;0.60;0.60;;;11.60;99.90;;;;;;5031358;28;20279;-77
2022/09/01 03:44:48;;;;;;;0.50;0.50;;;11.60;99.90;;;;;;5031511;28;20238;-78
2022/09/01 03:47:14;;;;;;;0.60;0.60;;;11.70;99.90;;;;;;5031644;28;20655;-78
2022/09/01 03:49:42;;;;;;;0.60;0.60;;;11.80;99.90;;;;;;5030855;28;20183;-78
2022/09/01 03:52:11;;;;;;;0.50;0.50;;;11.90;99.90;;;;;;5032429;28;20631;-78
2022/09/01 03:54:37;;;;;;;0.50;0.50;;;12.00;99.90;;;;;;5016109;28;20282;-78
2022/09/01 03:57:04;;;;;;;0.50;0.50;;;12.00;99.90;;;;;;5032064;28;20176;-78
2022/09/01 03:59:31;;;;;;;0.40;0.40;;;12.00;99.90;;;;;;5030923;28;20648;-78
2022/09/01 04:01:59;;;;;;;0.50;0.50;;;12.00;99.90;;;;;;5031495;28;20720;-78
2022/09/01 04:04:24;;;;;;;0.50;0.50;;;12.00;99.90;;;;;;5031799;28;20277;-78
2022/09/01 04:06:51;;;;;;;0.40;0.40;;;11.90;99.90;;;;;;5036522;28;20707;-78
2022/09/01 04:09:16;;;;;;;0.60;0.60;;;11.90;99.90;;;;;;5034419;28;20536;-77
2022/09/01 04:11:45;;;;;;;0.50;0.50;;;11.90;99.90;;;;;;5034890;28;20660;-77
2022/09/01 04:14:11;;;;;;;0.50;0.50;;;11.80;99.90;;;;;;5035695;28;20204;-77
2022/09/01 04:19:25;;;;;;;0.40;0.40;;;11.80;99.90;;;;;;5042434;28;20269;-77
2022/09/01 04:21:58;;;;;;;0.50;0.50;;;11.80;99.90;;;;;;5049809;28;20283;-77
2022/09/01 04:24:27;;;;;;;0.57;0.57;;;11.70;99.90;;;;;;5048141;28;20206;-78
2022/09/01 04:26:55;;;;;;;0.47;0.47;;;11.60;99.90;;;;;;5034950;28;20212;-77
2022/09/01 04:29:28;;;;;;;0.50;0.50;;;11.60;99.90;;;;;;5045061;28;20186;-79
2022/09/01 04:31:56;;;;;;;0.40;0.40;;;11.60;99.90;;;;;;5034629;28;20267;-77
2022/09/01 04:34:23;;;;;;;0.40;0.40;;;11.60;99.90;;;;;;5034716;28;20219;-78
2022/09/01 04:36:53;;;;;;;0.53;0.53;;;11.70;99.90;;;;;;5034216;28;20214;-77
2022/09/01 04:39:19;;;;;;;0.50;0.50;;;11.80;99.90;;;;;;5034076;28;20180;-77
2022/09/01 04:41:45;;;;;;;0.50;0.50;;;11.90;99.90;;;;;;5035118;28;20300;-77
2022/09/01 04:44:14;;;;;;;0.40;0.40;;;11.90;99.90;;;;;;5034342;28;20673;-77
